sensor_id;sensor_type;location;lat;lon;timestamp;P1;durP1;ratioP1;P2;durP2;ratioP2
64520;SDS011;50896;46.714;17.322;2023-04-01T00:02:23;3.95;;;1.80;;
64520;SDS011;50896;46.714;17.322;2023-04-01T00:04:50;2.40;;;1.58;;
64520;SDS011;50896;46.714;17.322;2023-04-01T00:07:17;2.47;;;1.73;;
64520;SDS011;50896;46.714;17.322;2023-04-01T00:09:44;3.38;;;1.40;;
64520;SDS011;50896;46.714;17.322;2023-04-01T00:12:11;5.10;;;2.00;;
64520;SDS011;50896;46.714;17.322;2023-04-01T00:14:37;3.10;;;1.80;;
64520;SDS011;50896;46.714;17.322;2023-04-01T00:17:06;3.33;;;1.65;;
64520;SDS011;50896;46.714;17.322;2023-04-01T00:19:33;4.22;;;1.90;;
64520;SDS011;50896;46.714;17.322;2023-04-01T00:22:01;1.63;;;1.40;;
64520;SDS011;50896;46.714;17.322;2023-04-01T00:24:28;2.35;;;1.70;;
64520;SDS011;50896;46.714;17.322;2023-04-01T00:26:55;3.58;;;1.90;;
64520;SDS011;50896;46.714;17.322;2023-04-01T00:29:22;2.42;;;1.60;;
64520;SDS011;50896;46.714;17.322;2023-04-01T00:31:50;3.17;;;1.73;;
64520;SDS011;50896;46.714;17.322;2023-04-01T00:34:17;3.03;;;1.95;;
64520;SDS011;50896;46.714;17.322;2023-04-01T00:36:44;1.70;;;1.40;;
64520;SDS011;50896;46.714;17.322;2023-04-01T00:39:11;3.50;;;1.60;;
64520;SDS011;50896;46.714;17.322;2023-04-01T00:41:37;2.88;;;1.50;;
64520;SDS011;50896;46.714;17.322;2023-04-01T00:44:11;3.30;;;1.83;;
64520;SDS011;50896;46.714;17.322;2023-04-01T00:46:42;4.45;;;1.40;;
64520;SDS011;50896;46.714;17.322;2023-04-01T00:49:09;2.90;;;1.55;;
64520;SDS011;50896;46.714;17.322;2023-04-01T00:51:36;2.90;;;1.83;;
64520;SDS011;50896;46.714;17.322;2023-04-01T00:54:05;3.15;;;1.80;;
64520;SDS011;50896;46.714;17.322;2023-04-01T00:56:34;2.30;;;1.55;;
64520;SDS011;50896;46.714;17.322;2023-04-01T00:59:13;1.75;;;1.65;;
64520;SDS011;50896;46.714;17.322;2023-04-01T01:01:42;2.58;;;1.65;;
64520;SDS011;50896;46.714;17.322;2023-04-01T01:04:22;2.30;;;1.92;;
64520;SDS011;50896;46.714;17.322;2023-04-01T01:07:04;2.17;;;1.58;;
64520;SDS011;50896;46.714;17.322;2023-04-01T01:09:55;1.65;;;1.10;;
64520;SDS011;50896;46.714;17.322;2023-04-01T01:18:09;3.63;;;2.00;;
64520;SDS011;50896;46.714;17.322;2023-04-01T01:26:13;3.65;;;1.80;;
64520;SDS011;50896;46.714;17.322;2023-04-01T01:31:44;3.25;;;1.63;;
64520;SDS011;50896;46.714;17.322;2023-04-01T01:37:17;4.03;;;2.10;;
64520;SDS011;50896;46.714;17.322;2023-04-01T01:39:50;2.88;;;1.67;;
64520;SDS011;50896;46.714;17.322;2023-04-01T01:42:22;2.47;;;1.90;;
64520;SDS011;50896;46.714;17.322;2023-04-01T01:44:51;1.92;;;1.70;;
64520;SDS011;50896;46.714;17.322;2023-04-01T01:47:20;2.73;;;1.77;;
64520;SDS011;50896;46.714;17.322;2023-04-01T01:49:48;3.20;;;1.50;;
64520;SDS011;50896;46.714;17.322;2023-04-01T01:52:17;3.15;;;2.15;;
64520;SDS011;50896;46.714;17.322;2023-04-01T01:54:49;3.55;;;2.05;;
64520;SDS011;50896;46.714;17.322;2023-04-01T01:57:18;4.00;;;2.00;;
64520;SDS011;50896;46.714;17.322;2023-04-01T01:59:51;4.18;;;1.90;;
64520;SDS011;50896;46.714;17.322;2023-04-01T02:02:25;3.33;;;1.67;;
64520;SDS011;50896;46.714;17.322;2023-04-01T02:04:53;2.60;;;1.90;;
64520;SDS011;50896;46.714;17.322;2023-04-01T02:07:25;2.58;;;1.75;;
64520;SDS011;50896;46.714;17.322;2023-04-01T02:09:58;2.92;;;1.70;;
64520;SDS011;50896;46.714;17.322;2023-04-01T02:12:26;4.18;;;2.47;;
64520;SDS011;50896;46.714;17.322;2023-04-01T02:14:57;4.22;;;3.28;;
64520;SDS011;50896;46.714;17.322;2023-04-01T02:17:31;5.40;;;4.53;;
64520;SDS011;50896;46.714;17.322;2023-04-01T02:20:02;5.82;;;4.00;;
64520;SDS011;50896;46.714;17.322;2023-04-01T02:22:35;4.10;;;2.25;;
64520;SDS011;50896;46.714;17.322;2023-04-01T02:25:06;2.67;;;2.08;;
64520;SDS011;50896;46.714;17.322;2023-04-01T02:27:35;3.03;;;1.60;;
64520;SDS011;50896;46.714;17.322;2023-04-01T02:30:03;5.05;;;2.13;;
64520;SDS011;50896;46.714;17.322;2023-04-01T02:32:31;5.75;;;1.88;;
64520;SDS011;50896;46.714;17.322;2023-04-01T02:35:01;3.58;;;1.77;;
64520;SDS011;50896;46.714;17.322;2023-04-01T02:37:32;6.20;;;1.90;;
64520;SDS011;50896;46.714;17.322;2023-04-01T02:40:03;4.60;;;2.20;;
64520;SDS011;50896;46.714;17.322;2023-04-01T02:42:33;3.45;;;1.92;;
64520;SDS011;50896;46.714;17.322;2023-04-01T02:45:01;4.32;;;2.03;;
64520;SDS011;50896;46.714;17.322;2023-04-01T02:47:28;3.00;;;1.80;;
64520;SDS011;50896;46.714;17.322;2023-04-01T02:49:56;2.88;;;1.75;;
64520;SDS011;50896;46.714;17.322;2023-04-01T02:52:25;2.75;;;1.92;;
64520;SDS011;50896;46.714;17.322;2023-04-01T02:54:53;3.30;;;2.00;;
64520;SDS011;50896;46.714;17.322;2023-04-01T02:57:20;5.25;;;2.08;;
64520;SDS011;50896;46.714;17.322;2023-04-01T02:59:47;3.72;;;1.98;;
64520;SDS011;50896;46.714;17.322;2023-04-01T03:02:14;2.88;;;2.00;;
64520;SDS011;50896;46.714;17.322;2023-04-01T03:04:42;3.65;;;1.92;;
64520;SDS011;50896;46.714;17.322;2023-04-01T03:07:09;2.58;;;2.05;;
64520;SDS011;50896;46.714;17.322;2023-04-01T03:09:37;2.92;;;1.90;;
64520;SDS011;50896;46.714;17.322;2023-04-01T03:12:05;4.90;;;2.20;;
64520;SDS011;50896;46.714;17.322;2023-04-01T03:14:42;4.60;;;2.40;;
64520;SDS011;50896;46.714;17.322;2023-04-01T03:17:09;3.88;;;2.10;;
64520;SDS011;50896;46.714;17.322;2023-04-01T03:19:36;4.43;;;2.10;;
64520;SDS011;50896;46.714;17.322;2023-04-01T03:22:07;2.90;;;2.05;;
64520;SDS011;50896;46.714;17.322;2023-04-01T03:24:37;2.72;;;2.15;;
64520;SDS011;50896;46.714;17.322;2023-04-01T03:27:04;3.50;;;2.28;;
64520;SDS011;50896;46.714;17.322;2023-04-01T03:29:30;2.17;;;1.95;;
64520;SDS011;50896;46.714;17.322;2023-04-01T03:31:58;4.47;;;2.30;;
64520;SDS011;50896;46.714;17.322;2023-04-01T03:34:25;3.25;;;2.10;;
64520;SDS011;50896;46.714;17.322;2023-04-01T03:36:53;3.78;;;2.30;;
64520;SDS011;50896;46.714;17.322;2023-04-01T03:39:20;4.75;;;2.50;;
64520;SDS011;50896;46.714;17.322;2023-04-01T03:41:49;3.20;;;2.08;;
64520;SDS011;50896;46.714;17.322;2023-04-01T03:44:16;3.72;;;2.20;;
64520;SDS011;50896;46.714;17.322;2023-04-01T03:49:14;5.88;;;2.88;;
64520;SDS011;50896;46.714;17.322;2023-04-01T03:51:41;2.97;;;2.20;;
64520;SDS011;50896;46.714;17.322;2023-04-01T03:54:10;2.55;;;2.30;;
64520;SDS011;50896;46.714;17.322;2023-04-01T03:56:37;4.15;;;2.90;;
64520;SDS011;50896;46.714;17.322;2023-04-01T03:59:05;5.78;;;2.30;;
64520;SDS011;50896;46.714;17.322;2023-04-01T04:01:34;2.40;;;2.20;;
64520;SDS011;50896;46.714;17.322;2023-04-01T04:04:01;2.72;;;2.35;;
64520;SDS011;50896;46.714;17.322;2023-04-01T04:06:28;2.35;;;2.15;;
64520;SDS011;50896;46.714;17.322;2023-04-01T04:08:55;3.75;;;2.45;;
64520;SDS011;50896;46.714;17.322;2023-04-01T04:11:22;3.13;;;2.28;;
64520;SDS011;50896;46.714;17.322;2023-04-01T04:13:51;3.67;;;2.40;;
64520;SDS011;50896;46.714;17.322;2023-04-01T04:16:19;3.58;;;2.40;;
64520;SDS011;50896;46.714;17.322;2023-04-01T04:18:52;3.08;;;2.47;;
64520;SDS011;50896;46.714;17.322;2023-04-01T04:21:19;3.00;;;2.30;;
64520;SDS011;50896;46.714;17.322;2023-04-01T04:23:47;3.45;;;2.30;;
64520;SDS011;50896;46.714;17.322;2023-04-01T04:26:16;2.90;;;2.50;;
64520;SDS011;50896;46.714;17.322;2023-04-01T04:28:50;3.13;;;2.30;;
64520;SDS011;50896;46.714;17.322;2023-04-01T04:31:19;3.45;;;2.35;;
64520;SDS011;50896;46.714;17.322;2023-04-01T04:33:49;2.63;;;2.40;;
64520;SDS011;50896;46.714;17.322;2023-04-01T04:36:16;4.00;;;2.30;;
64520;SDS011;50896;46.714;17.322;2023-04-01T04:38:45;4.10;;;2.38;;
64520;SDS011;50896;46.714;17.322;2023-04-01T04:41:12;4.10;;;2.83;;
64520;SDS011;50896;46.714;17.322;2023-04-01T04:43:48;3.88;;;2.80;;
64520;SDS011;50896;46.714;17.322;2023-04-01T04:46:17;3.92;;;2.35;;
64520;SDS011;50896;46.714;17.322;2023-04-01T04:48:45;8.18;;;5.05;;
64520;SDS011;50896;46.714;17.322;2023-04-01T04:51:13;31.25;;;19.38;;
64520;SDS011;50896;46.714;17.322;2023-04-01T04:53:42;11.90;;;6.82;;
64520;SDS011;50896;46.714;17.322;2023-04-01T04:56:09;4.70;;;3.47;;
64520;SDS011;50896;46.714;17.322;2023-04-01T04:58:42;4.22;;;3.40;;
64520;SDS011;50896;46.714;17.322;2023-04-01T05:01:15;5.65;;;3.42;;
64520;SDS011;50896;46.714;17.322;2023-04-01T05:03:43;4.35;;;2.95;;
64520;SDS011;50896;46.714;17.322;2023-04-01T05:06:12;4.60;;;2.90;;
64520;SDS011;50896;46.714;17.322;2023-04-01T05:08:40;8.15;;;3.58;;
64520;SDS011;50896;46.714;17.322;2023-04-01T05:11:10;6.53;;;4.20;;
64520;SDS011;50896;46.714;17.322;2023-04-01T05:13:41;8.10;;;4.78;;
64520;SDS011;50896;46.714;17.322;2023-04-01T05:16:09;7.20;;;4.18;;
64520;SDS011;50896;46.714;17.322;2023-04-01T05:18:38;5.50;;;3.70;;
64520;SDS011;50896;46.714;17.322;2023-04-01T05:21:06;5.68;;;3.70;;
64520;SDS011;50896;46.714;17.322;2023-04-01T05:23:35;5.25;;;3.50;;
64520;SDS011;50896;46.714;17.322;2023-04-01T05:26:03;5.90;;;3.78;;
64520;SDS011;50896;46.714;17.322;2023-04-01T05:28:32;5.57;;;4.18;;
64520;SDS011;50896;46.714;17.322;2023-04-01T05:31:00;6.35;;;3.72;;
64520;SDS011;50896;46.714;17.322;2023-04-01T05:33:33;6.57;;;3.85;;
64520;SDS011;50896;46.714;17.322;2023-04-01T05:36:07;5.85;;;4.68;;
64520;SDS011;50896;46.714;17.322;2023-04-01T05:38:34;6.35;;;4.50;;
64520;SDS011;50896;46.714;17.322;2023-04-01T05:41:01;5.97;;;4.88;;
64520;SDS011;50896;46.714;17.322;2023-04-01T05:43:30;9.45;;;5.25;;
64520;SDS011;50896;46.714;17.322;2023-04-01T05:46:06;5.05;;;3.90;;
64520;SDS011;50896;46.714;17.322;2023-04-01T05:48:45;5.57;;;4.22;;
64520;SDS011;50896;46.714;17.322;2023-04-01T05:51:12;6.13;;;4.22;;
64520;SDS011;50896;46.714;17.322;2023-04-01T05:53:41;7.77;;;5.23;;
64520;SDS011;50896;46.714;17.322;2023-04-01T05:56:08;17.23;;;11.77;;
64520;SDS011;50896;46.714;17.322;2023-04-01T05:58:39;8.65;;;6.22;;
64520;SDS011;50896;46.714;17.322;2023-04-01T06:01:08;8.50;;;5.88;;
64520;SDS011;50896;46.714;17.322;2023-04-01T06:03:42;7.20;;;5.38;;
64520;SDS011;50896;46.714;17.322;2023-04-01T06:06:18;8.90;;;4.60;;
64520;SDS011;50896;46.714;17.322;2023-04-01T06:08:52;6.80;;;5.30;;
64520;SDS011;50896;46.714;17.322;2023-04-01T06:14:22;10.13;;;6.80;;
64520;SDS011;50896;46.714;17.322;2023-04-01T06:43:06;12.98;;;7.68;;
64520;SDS011;50896;46.714;17.322;2023-04-01T06:46:16;10.02;;;6.05;;
64520;SDS011;50896;46.714;17.322;2023-04-01T06:56:21;8.75;;;5.05;;
64520;SDS011;50896;46.714;17.322;2023-04-01T06:59:02;7.82;;;5.47;;
64520;SDS011;50896;46.714;17.322;2023-04-01T07:01:49;8.45;;;5.82;;
64520;SDS011;50896;46.714;17.322;2023-04-01T07:04:20;8.90;;;5.05;;
64520;SDS011;50896;46.714;17.322;2023-04-01T07:06:54;9.13;;;4.80;;
64520;SDS011;50896;46.714;17.322;2023-04-01T07:09:26;9.73;;;5.15;;
64520;SDS011;50896;46.714;17.322;2023-04-01T07:15:43;7.55;;;4.82;;
64520;SDS011;50896;46.714;17.322;2023-04-01T07:18:21;8.93;;;4.70;;
64520;SDS011;50896;46.714;17.322;2023-04-01T07:23:29;5.53;;;3.28;;
64520;SDS011;50896;46.714;17.322;2023-04-01T07:26:19;11.13;;;5.07;;
64520;SDS011;50896;46.714;17.322;2023-04-01T07:29:05;8.30;;;3.40;;
64520;SDS011;50896;46.714;17.322;2023-04-01T07:37:45;10.10;;;4.82;;
64520;SDS011;50896;46.714;17.322;2023-04-01T07:40:17;6.68;;;5.20;;
64520;SDS011;50896;46.714;17.322;2023-04-01T07:51:20;4.70;;;3.35;;
64520;SDS011;50896;46.714;17.322;2023-04-01T07:59:50;5.93;;;4.10;;
64520;SDS011;50896;46.714;17.322;2023-04-01T08:11:35;5.22;;;3.72;;
64520;SDS011;50896;46.714;17.322;2023-04-01T08:14:52;5.57;;;3.78;;
64520;SDS011;50896;46.714;17.322;2023-04-01T08:23:14;5.40;;;2.88;;
64520;SDS011;50896;46.714;17.322;2023-04-01T08:25:46;4.78;;;2.70;;
64520;SDS011;50896;46.714;17.322;2023-04-01T08:28:31;4.53;;;2.40;;
64520;SDS011;50896;46.714;17.322;2023-04-01T08:31:07;6.93;;;3.08;;
64520;SDS011;50896;46.714;17.322;2023-04-01T08:33:42;5.68;;;2.55;;
64520;SDS011;50896;46.714;17.322;2023-04-01T08:47:50;4.15;;;2.80;;
64520;SDS011;50896;46.714;17.322;2023-04-01T08:57:04;4.82;;;2.47;;
64520;SDS011;50896;46.714;17.322;2023-04-01T09:11:55;4.35;;;2.38;;
64520;SDS011;50896;46.714;17.322;2023-04-01T09:17:29;3.15;;;2.20;;
64520;SDS011;50896;46.714;17.322;2023-04-01T09:20:23;4.00;;;2.20;;
64520;SDS011;50896;46.714;17.322;2023-04-01T09:35:02;4.28;;;2.30;;
64520;SDS011;50896;46.714;17.322;2023-04-01T10:14:16;2.78;;;1.10;;
64520;SDS011;50896;46.714;17.322;2023-04-01T10:37:05;3.53;;;0.90;;
64520;SDS011;50896;46.714;17.322;2023-04-01T10:39:56;3.72;;;0.98;;
64520;SDS011;50896;46.714;17.322;2023-04-01T10:43:02;3.33;;;0.90;;
64520;SDS011;50896;46.714;17.322;2023-04-01T11:12:17;1.50;;;0.85;;
64520;SDS011;50896;46.714;17.322;2023-04-01T11:30:32;1.55;;;0.80;;
64520;SDS011;50896;46.714;17.322;2023-04-01T11:33:25;2.65;;;1.13;;
64520;SDS011;50896;46.714;17.322;2023-04-01T11:42:10;2.47;;;0.90;;
64520;SDS011;50896;46.714;17.322;2023-04-01T11:45:27;1.65;;;0.50;;
64520;SDS011;50896;46.714;17.322;2023-04-01T11:54:06;1.42;;;0.60;;
64520;SDS011;50896;46.714;17.322;2023-04-01T12:02:29;0.88;;;0.68;;
64520;SDS011;50896;46.714;17.322;2023-04-01T12:18:48;1.30;;;0.40;;
64520;SDS011;50896;46.714;17.322;2023-04-01T12:21:58;1.55;;;0.38;;
64520;SDS011;50896;46.714;17.322;2023-04-01T12:24:40;2.83;;;0.30;;
64520;SDS011;50896;46.714;17.322;2023-04-01T12:27:38;0.55;;;0.20;;
64520;SDS011;50896;46.714;17.322;2023-04-01T12:30:53;0.40;;;0.40;;
64520;SDS011;50896;46.714;17.322;2023-04-01T12:55:39;0.90;;;0.60;;
64520;SDS011;50896;46.714;17.322;2023-04-01T13:09:07;1.55;;;0.45;;
64520;SDS011;50896;46.714;17.322;2023-04-01T13:11:53;0.35;;;0.20;;
64520;SDS011;50896;46.714;17.322;2023-04-01T13:14:44;0.35;;;0.30;;
64520;SDS011;50896;46.714;17.322;2023-04-01T13:31:02;2.45;;;0.40;;
64520;SDS011;50896;46.714;17.322;2023-04-01T13:36:47;3.53;;;0.93;;
64520;SDS011;50896;46.714;17.322;2023-04-01T13:42:26;3.85;;;0.60;;
64520;SDS011;50896;46.714;17.322;2023-04-01T13:45:08;1.23;;;0.35;;
64520;SDS011;50896;46.714;17.322;2023-04-01T14:14:36;0.52;;;0.40;;
64520;SDS011;50896;46.714;17.322;2023-04-01T14:19:50;2.20;;;0.80;;
64520;SDS011;50896;46.714;17.322;2023-04-01T14:22:26;0.95;;;0.70;;
64520;SDS011;50896;46.714;17.322;2023-04-01T14:28:08;2.47;;;0.70;;
64520;SDS011;50896;46.714;17.322;2023-04-01T14:36:33;2.80;;;1.33;;
64520;SDS011;50896;46.714;17.322;2023-04-01T14:47:53;1.83;;;0.70;;
64520;SDS011;50896;46.714;17.322;2023-04-01T14:50:27;1.63;;;1.00;;
64520;SDS011;50896;46.714;17.322;2023-04-01T14:58:09;0.68;;;0.40;;
64520;SDS011;50896;46.714;17.322;2023-04-01T15:15:03;2.20;;;0.75;;
64520;SDS011;50896;46.714;17.322;2023-04-01T15:20:30;0.65;;;0.40;;
64520;SDS011;50896;46.714;17.322;2023-04-01T15:28:34;1.70;;;0.80;;
64520;SDS011;50896;46.714;17.322;2023-04-01T15:31:09;1.95;;;0.95;;
64520;SDS011;50896;46.714;17.322;2023-04-01T15:49:56;3.65;;;1.83;;
64520;SDS011;50896;46.714;17.322;2023-04-01T15:52:34;4.10;;;1.80;;
64520;SDS011;50896;46.714;17.322;2023-04-01T16:01:24;6.50;;;2.67;;
64520;SDS011;50896;46.714;17.322;2023-04-01T16:17:57;5.68;;;1.83;;
64520;SDS011;50896;46.714;17.322;2023-04-01T16:20:43;4.65;;;2.67;;
64520;SDS011;50896;46.714;17.322;2023-04-01T16:29:36;10.48;;;4.80;;
64520;SDS011;50896;46.714;17.322;2023-04-01T16:34:41;11.23;;;5.60;;
64520;SDS011;50896;46.714;17.322;2023-04-01T16:37:14;12.40;;;5.60;;
64520;SDS011;50896;46.714;17.322;2023-04-01T16:39:49;15.88;;;8.00;;
64520;SDS011;50896;46.714;17.322;2023-04-01T16:47:47;26.02;;;11.40;;
64520;SDS011;50896;46.714;17.322;2023-04-01T16:52:55;14.48;;;8.73;;
64520;SDS011;50896;46.714;17.322;2023-04-01T16:58:42;7.00;;;4.90;;
64520;SDS011;50896;46.714;17.322;2023-04-01T17:03:51;8.63;;;5.60;;
64520;SDS011;50896;46.714;17.322;2023-04-01T17:11:48;11.13;;;7.53;;
64520;SDS011;50896;46.714;17.322;2023-04-01T17:19:40;8.73;;;5.65;;
64520;SDS011;50896;46.714;17.322;2023-04-01T17:30:56;4.97;;;3.10;;
64520;SDS011;50896;46.714;17.322;2023-04-01T17:36:54;6.70;;;3.40;;
64520;SDS011;50896;46.714;17.322;2023-04-01T17:41:45;5.93;;;3.42;;
64520;SDS011;50896;46.714;17.322;2023-04-01T17:44:23;5.38;;;3.28;;
64520;SDS011;50896;46.714;17.322;2023-04-01T17:50:49;6.90;;;3.42;;
64520;SDS011;50896;46.714;17.322;2023-04-01T17:58:02;5.72;;;3.33;;
64520;SDS011;50896;46.714;17.322;2023-04-01T18:00:39;5.18;;;2.78;;
64520;SDS011;50896;46.714;17.322;2023-04-01T18:05:57;4.68;;;2.90;;
64520;SDS011;50896;46.714;17.322;2023-04-01T18:14:36;5.95;;;3.20;;
64520;SDS011;50896;46.714;17.322;2023-04-01T18:26:08;6.18;;;3.70;;
64520;SDS011;50896;46.714;17.322;2023-04-01T18:28:59;6.70;;;4.50;;
64520;SDS011;50896;46.714;17.322;2023-04-01T18:31:39;6.57;;;4.25;;
64520;SDS011;50896;46.714;17.322;2023-04-01T18:34:16;7.75;;;4.20;;
64520;SDS011;50896;46.714;17.322;2023-04-01T18:36:49;7.40;;;4.50;;
64520;SDS011;50896;46.714;17.322;2023-04-01T18:39:23;7.30;;;4.70;;
64520;SDS011;50896;46.714;17.322;2023-04-01T18:47:55;7.95;;;4.28;;
64520;SDS011;50896;46.714;17.322;2023-04-01T18:53:45;8.10;;;5.45;;
64520;SDS011;50896;46.714;17.322;2023-04-01T18:56:43;11.15;;;5.65;;
64520;SDS011;50896;46.714;17.322;2023-04-01T18:59:12;7.57;;;4.60;;
64520;SDS011;50896;46.714;17.322;2023-04-01T19:02:02;7.22;;;4.90;;
64520;SDS011;50896;46.714;17.322;2023-04-01T19:07:48;6.00;;;4.07;;
64520;SDS011;50896;46.714;17.322;2023-04-01T19:10:26;8.55;;;5.65;;
64520;SDS011;50896;46.714;17.322;2023-04-01T19:21:18;7.07;;;4.53;;
64520;SDS011;50896;46.714;17.322;2023-04-01T19:27:03;6.60;;;4.47;;
64520;SDS011;50896;46.714;17.322;2023-04-01T19:29:38;7.43;;;3.17;;
64520;SDS011;50896;46.714;17.322;2023-04-01T19:37:22;6.57;;;4.22;;
64520;SDS011;50896;46.714;17.322;2023-04-01T19:43:00;7.82;;;5.32;;
64520;SDS011;50896;46.714;17.322;2023-04-01T19:45:40;7.00;;;4.50;;
64520;SDS011;50896;46.714;17.322;2023-04-01T19:51:49;7.77;;;4.00;;
64520;SDS011;50896;46.714;17.322;2023-04-01T19:59:31;4.85;;;2.88;;
64520;SDS011;50896;46.714;17.322;2023-04-01T20:07:51;5.88;;;2.75;;
64520;SDS011;50896;46.714;17.322;2023-04-01T20:16:09;5.70;;;3.88;;
64520;SDS011;50896;46.714;17.322;2023-04-01T20:21:06;4.72;;;3.72;;
64520;SDS011;50896;46.714;17.322;2023-04-01T20:24:07;4.70;;;3.60;;
64520;SDS011;50896;46.714;17.322;2023-04-01T20:26:58;6.22;;;4.20;;
64520;SDS011;50896;46.714;17.322;2023-04-01T20:35:37;6.78;;;3.65;;
64520;SDS011;50896;46.714;17.322;2023-04-01T20:38:26;8.10;;;3.40;;
64520;SDS011;50896;46.714;17.322;2023-04-01T20:41:02;4.93;;;3.80;;
64520;SDS011;50896;46.714;17.322;2023-04-01T20:57:26;9.18;;;4.75;;
64520;SDS011;50896;46.714;17.322;2023-04-01T21:08:17;7.13;;;4.20;;
64520;SDS011;50896;46.714;17.322;2023-04-01T21:10:58;5.25;;;3.72;;
64520;SDS011;50896;46.714;17.322;2023-04-01T21:13:37;6.53;;;3.35;;
64520;SDS011;50896;46.714;17.322;2023-04-01T21:16:35;6.07;;;2.90;;
64520;SDS011;50896;46.714;17.322;2023-04-01T21:22:23;5.15;;;2.35;;
64520;SDS011;50896;46.714;17.322;2023-04-01T22:05:23;7.97;;;2.75;;
64520;SDS011;50896;46.714;17.322;2023-04-01T22:10:32;3.78;;;2.65;;
64520;SDS011;50896;46.714;17.322;2023-04-01T22:18:45;4.40;;;2.17;;
64520;SDS011;50896;46.714;17.322;2023-04-01T22:43:45;4.90;;;3.25;;
64520;SDS011;50896;46.714;17.322;2023-04-01T22:51:47;5.72;;;3.78;;
64520;SDS011;50896;46.714;17.322;2023-04-01T22:54:28;8.23;;;4.43;;
64520;SDS011;50896;46.714;17.322;2023-04-01T23:00:04;10.43;;;5.47;;
64520;SDS011;50896;46.714;17.322;2023-04-01T23:02:46;14.05;;;8.25;;
64520;SDS011;50896;46.714;17.322;2023-04-01T23:05:25;10.88;;;6.53;;
64520;SDS011;50896;46.714;17.322;2023-04-01T23:07:59;9.68;;;6.25;;
64520;SDS011;50896;46.714;17.322;2023-04-01T23:10:49;11.15;;;5.50;;
64520;SDS011;50896;46.714;17.322;2023-04-01T23:13:22;9.55;;;5.00;;
64520;SDS011;50896;46.714;17.322;2023-04-01T23:15:54;10.50;;;5.85;;
64520;SDS011;50896;46.714;17.322;2023-04-01T23:21:36;7.85;;;4.40;;
64520;SDS011;50896;46.714;17.322;2023-04-01T23:27:14;3.73;;;2.60;;
64520;SDS011;50896;46.714;17.322;2023-04-01T23:29:49;4.03;;;2.35;;
64520;SDS011;50896;46.714;17.322;2023-04-01T23:32:18;4.28;;;2.63;;
64520;SDS011;50896;46.714;17.322;2023-04-01T23:34:49;5.65;;;2.80;;
64520;SDS011;50896;46.714;17.322;2023-04-01T23:37:17;4.13;;;2.50;;
64520;SDS011;50896;46.714;17.322;2023-04-01T23:39:46;4.32;;;2.50;;
64520;SDS011;50896;46.714;17.322;2023-04-01T23:42:23;3.83;;;2.65;;
64520;SDS011;50896;46.714;17.322;2023-04-01T23:44:51;4.22;;;2.55;;
64520;SDS011;50896;46.714;17.322;2023-04-01T23:47:23;4.65;;;2.60;;
64520;SDS011;50896;46.714;17.322;2023-04-01T23:49:54;3.28;;;2.40;;
64520;SDS011;50896;46.714;17.322;2023-04-01T23:52:27;4.68;;;2.42;;
64520;SDS011;50896;46.714;17.322;2023-04-01T23:55:08;3.22;;;2.17;;
64520;SDS011;50896;46.714;17.322;2023-04-01T23:57:42;6.55;;;2.15;;
